createdAt,value
2022-10-08T00:01:28.947Z,12.70
2022-10-08T00:03:57.774Z,12.70
2022-10-08T00:06:28.209Z,12.80
2022-10-08T00:08:57.899Z,12.80
2022-10-08T00:11:28.533Z,12.80
2022-10-08T00:13:58.746Z,12.70
2022-10-08T00:16:28.871Z,12.80
2022-10-08T00:18:59.304Z,12.80
2022-10-08T00:21:29.874Z,12.90
2022-10-08T00:23:59.052Z,12.90
2022-10-08T00:26:29.616Z,12.80
2022-10-08T00:29:00.436Z,12.90
2022-10-08T00:31:32.347Z,12.90
2022-10-08T00:34:04.329Z,12.90
2022-10-08T00:36:33.932Z,12.80
2022-10-08T00:39:04.926Z,12.90
2022-10-08T00:41:35.014Z,12.90
2022-10-08T00:44:20.509Z,13.00
2022-10-08T00:46:50.867Z,12.90
2022-10-08T00:49:21.839Z,12.90
2022-10-08T00:51:54.092Z,12.80
2022-10-08T00:54:23.811Z,13.00
2022-10-08T00:56:54.950Z,12.90
2022-10-08T00:59:25.096Z,12.90
2022-10-08T01:01:54.091Z,13.10
2022-10-08T01:04:22.178Z,13.00
2022-10-08T01:06:57.867Z,12.90
2022-10-08T01:09:31.592Z,13.00
2022-10-08T01:12:09.625Z,13.10
2022-10-08T01:14:46.459Z,13.10
2022-10-08T01:17:25.043Z,13.20
2022-10-08T01:20:16.862Z,13.20
2022-10-08T01:23:04.177Z,13.30
2022-10-08T01:25:37.888Z,13.30
2022-10-08T01:28:13.356Z,13.40
2022-10-08T01:30:42.732Z,13.50
2022-10-08T01:33:15.950Z,13.40
2022-10-08T01:35:50.658Z,13.60
2022-10-08T01:38:23.209Z,13.70
2022-10-08T01:40:54.775Z,13.70
2022-10-08T01:43:26.137Z,13.70
2022-10-08T01:45:58.803Z,13.70
2022-10-08T01:48:30.957Z,13.70
2022-10-08T01:51:04.211Z,13.60
2022-10-08T01:53:37.525Z,13.60
2022-10-08T01:56:08.851Z,13.60
2022-10-08T01:58:46.162Z,13.60
2022-10-08T02:01:28.757Z,13.60
2022-10-08T02:04:14.472Z,13.70
2022-10-08T02:06:49.133Z,13.70
2022-10-08T02:09:17.107Z,13.70
2022-10-08T02:11:45.196Z,13.60
2022-10-08T02:14:14.664Z,13.60
2022-10-08T02:16:51.497Z,13.70
2022-10-08T02:19:29.948Z,13.60
2022-10-08T02:22:00.792Z,13.70
2022-10-08T02:24:34.491Z,13.70
2022-10-08T02:27:05.635Z,13.70
2022-10-08T02:29:38.751Z,13.70
2022-10-08T02:32:11.261Z,13.80
2022-10-08T02:34:43.224Z,13.70
2022-10-08T02:37:15.422Z,13.60
2022-10-08T02:39:48.769Z,13.70
2022-10-08T02:42:22.639Z,13.60
2022-10-08T02:44:55.817Z,13.60
2022-10-08T02:47:27.514Z,13.60
2022-10-08T02:50:01.569Z,13.70
2022-10-08T02:52:36.863Z,13.70
2022-10-08T02:55:12.613Z,13.60
2022-10-08T02:57:45.380Z,13.50
2022-10-08T03:00:15.150Z,13.60
2022-10-08T03:02:50.711Z,13.50
2022-10-08T03:05:21.096Z,13.50
2022-10-08T03:07:51.649Z,13.50
2022-10-08T03:10:19.938Z,13.50
2022-10-08T03:12:48.796Z,13.50
2022-10-08T03:15:18.488Z,13.50
2022-10-08T03:17:48.292Z,13.50
2022-10-08T03:20:16.393Z,13.50
2022-10-08T03:22:44.879Z,13.60
2022-10-08T03:25:13.043Z,13.60
2022-10-08T03:27:41.012Z,13.40
2022-10-08T03:30:10.314Z,13.50
2022-10-08T03:32:39.640Z,13.40
2022-10-08T03:35:07.926Z,13.40
2022-10-08T03:37:35.924Z,13.40
2022-10-08T03:40:03.971Z,13.60
2022-10-08T03:42:31.909Z,13.30
2022-10-08T03:45:01.375Z,13.30
2022-10-08T03:47:29.312Z,13.20
2022-10-08T03:49:58.646Z,13.20
2022-10-08T03:52:26.647Z,13.20
2022-10-08T03:54:54.580Z,13.20
2022-10-08T03:57:22.543Z,13.20
2022-10-08T03:59:50.548Z,13.10
2022-10-08T04:02:18.566Z,13.10
2022-10-08T04:04:46.560Z,13.00
2022-10-08T04:12:13.886Z,13.00
2022-10-08T04:14:41.835Z,12.90
2022-10-08T04:17:09.779Z,12.90
2022-10-08T04:29:36.773Z,12.70
2022-10-08T04:32:04.732Z,12.70
2022-10-08T04:34:32.671Z,12.70
2022-10-08T04:37:00.635Z,12.70
2022-10-08T04:39:28.603Z,12.80
2022-10-08T04:41:57.929Z,12.60
2022-10-08T04:44:25.978Z,12.70
2022-10-08T04:46:53.932Z,12.60
2022-10-08T04:49:21.854Z,12.60
2022-10-08T04:51:49.796Z,12.60
2022-10-08T04:54:17.772Z,12.60
2022-10-08T04:56:45.736Z,12.50
2022-10-08T04:59:15.047Z,12.50
2022-10-08T05:01:43.048Z,12.60
2022-10-08T05:04:11.110Z,12.50
2022-10-08T05:06:39.447Z,12.50
2022-10-08T05:09:07.419Z,12.40
2022-10-08T05:11:35.414Z,12.30
2022-10-08T05:14:03.607Z,12.40
2022-10-08T05:16:33.420Z,12.30
2022-10-08T05:19:01.616Z,12.20
2022-10-08T05:21:31.187Z,12.30
2022-10-08T05:26:58.156Z,12.20
2022-10-08T05:29:19.696Z,12.10
2022-10-08T05:31:49.047Z,12.10
2022-10-08T05:34:17.242Z,12.10
2022-10-08T05:36:45.222Z,12.10
2022-10-08T05:39:13.168Z,12.00
2022-10-08T05:41:41.816Z,12.10
2022-10-08T05:44:11.529Z,12.10
2022-10-08T05:46:39.806Z,12.00
2022-10-08T05:49:14.157Z,12.00
2022-10-08T05:51:42.153Z,12.00
2022-10-08T05:54:10.115Z,12.00
2022-10-08T05:56:38.075Z,12.00
2022-10-08T05:59:06.186Z,11.90
2022-10-08T06:01:34.985Z,11.90
2022-10-08T06:04:08.835Z,11.90
2022-10-08T06:06:38.955Z,11.90
2022-10-08T06:09:07.648Z,11.90
2022-10-08T06:11:36.897Z,11.90
2022-10-08T06:14:07.092Z,12.00
2022-10-08T06:16:35.818Z,11.90
2022-10-08T06:19:04.178Z,12.00
2022-10-08T06:21:32.631Z,12.00
2022-10-08T06:24:03.977Z,12.20
2022-10-08T06:26:35.986Z,12.00
2022-10-08T06:29:05.637Z,12.00
2022-10-08T06:31:34.592Z,12.10
2022-10-08T06:34:04.321Z,12.10
2022-10-08T06:36:34.077Z,12.20
2022-10-08T06:39:06.753Z,12.40
2022-10-08T06:41:35.223Z,12.40
2022-10-08T06:44:04.131Z,12.50
2022-10-08T06:49:01.843Z,12.60
2022-10-08T06:51:30.750Z,12.80
2022-10-08T06:54:06.049Z,12.90
2022-10-08T06:56:37.444Z,12.90
2022-10-08T06:59:07.028Z,12.90
2022-10-08T07:01:35.917Z,13.10
2022-10-08T07:04:05.701Z,13.20
2022-10-08T07:06:33.945Z,13.50
2022-10-08T07:09:02.684Z,13.70
2022-10-08T07:11:32.128Z,13.80
2022-10-08T07:14:01.846Z,13.90
2022-10-08T07:16:30.068Z,14.30
2022-10-08T07:18:59.394Z,14.60
2022-10-08T07:21:28.910Z,14.60
2022-10-08T07:23:59.324Z,14.80
2022-10-08T07:26:29.432Z,15.00
2022-10-08T07:41:24.626Z,16.50
2022-10-08T07:43:53.816Z,16.40
2022-10-08T07:46:22.584Z,16.70
2022-10-08T07:48:51.894Z,17.10
2022-10-08T07:51:21.076Z,17.20
2022-10-08T07:53:49.759Z,17.60
2022-10-08T07:56:20.865Z,17.90
2022-10-08T07:58:49.436Z,18.30
2022-10-08T08:06:26.872Z,18.30
2022-10-08T08:11:25.250Z,18.30
2022-10-08T08:16:25.495Z,19.20
2022-10-08T08:18:57.156Z,19.50
2022-10-08T08:21:27.246Z,19.70
2022-10-08T08:23:56.971Z,20.10
2022-10-08T08:26:28.239Z,20.50
2022-10-08T08:31:27.139Z,20.20
2022-10-08T08:33:58.117Z,20.50
2022-10-08T08:36:28.179Z,21.00
2022-10-08T08:38:57.001Z,20.80
2022-10-08T08:41:45.182Z,21.10
2022-10-08T08:44:19.707Z,21.60
2022-10-08T08:46:52.834Z,21.40
2022-10-08T08:49:28.283Z,21.70
2022-10-08T08:51:56.972Z,21.80
2022-10-08T08:54:25.168Z,22.20
2022-10-08T08:56:54.626Z,22.00
2022-10-08T08:59:29.124Z,22.20
2022-10-08T09:02:00.856Z,22.80
2022-10-08T09:04:44.952Z,23.20
2022-10-08T09:07:17.751Z,22.80
2022-10-08T09:09:49.342Z,22.90
2022-10-08T09:17:21.733Z,24.20
2022-10-08T09:29:50.677Z,24.20
2022-10-08T09:40:20.270Z,23.20
2022-10-08T09:53:35.500Z,22.80
2022-10-08T10:01:13.612Z,22.50
2022-10-08T10:09:01.105Z,24.30
2022-10-08T10:44:23.460Z,27.10
2022-10-08T10:52:04.563Z,25.00
2022-10-08T11:18:03.242Z,26.40
2022-10-08T11:28:45.912Z,27.60
2022-10-08T11:31:24.792Z,27.80
2022-10-08T12:24:59.025Z,26.20
2022-10-08T12:30:00.348Z,25.50
2022-10-08T12:42:37.268Z,27.10
2022-10-08T12:50:39.590Z,28.50
2022-10-08T12:55:45.438Z,29.30
2022-10-08T12:58:18.960Z,29.20
2022-10-08T13:05:53.419Z,28.30
2022-10-08T13:08:35.211Z,29.10
2022-10-08T13:11:05.652Z,29.90
2022-10-08T13:13:52.025Z,29.70
2022-10-08T13:16:22.515Z,30.20
2022-10-08T13:18:53.987Z,29.70
2022-10-08T13:21:36.633Z,30.10
2022-10-08T13:26:45.985Z,31.30
2022-10-08T13:29:27.289Z,30.20
2022-10-08T13:31:57.685Z,30.70
2022-10-08T13:34:29.827Z,29.90
2022-10-08T13:36:59.514Z,29.00
2022-10-08T13:39:30.791Z,28.30
2022-10-08T13:42:01.961Z,27.80
2022-10-08T13:44:30.540Z,27.90
2022-10-08T13:47:03.587Z,27.50
2022-10-08T13:49:34.133Z,27.70
2022-10-08T13:52:02.929Z,26.80
2022-10-08T13:54:33.427Z,26.90
2022-10-08T13:57:01.897Z,25.90
2022-10-08T13:59:30.976Z,26.30
2022-10-08T14:01:59.237Z,25.70
2022-10-08T14:09:30.243Z,26.60
2022-10-08T14:12:01.930Z,26.40
2022-10-08T14:14:29.914Z,25.70
2022-10-08T14:16:57.964Z,25.90
2022-10-08T14:19:25.996Z,26.10
2022-10-08T14:24:25.806Z,26.40
2022-10-08T14:26:56.561Z,26.90
2022-10-08T14:29:24.613Z,26.90
2022-10-08T14:31:52.643Z,27.10
2022-10-08T14:34:20.643Z,26.70
2022-10-08T14:36:50.139Z,26.90
2022-10-08T14:39:18.098Z,27.00
2022-10-08T14:41:47.467Z,27.00
2022-10-08T14:44:16.772Z,26.50
2022-10-08T14:46:44.972Z,25.80
2022-10-08T14:49:12.939Z,25.60
2022-10-08T14:51:40.896Z,25.30
2022-10-08T14:54:10.172Z,25.10
2022-10-08T14:56:38.658Z,24.90
2022-10-08T14:59:08.178Z,24.70
2022-10-08T15:01:36.696Z,24.40
2022-10-08T15:04:05.024Z,24.30
2022-10-08T15:06:33.089Z,24.10
2022-10-08T15:16:28.767Z,24.30
2022-10-08T15:23:56.641Z,24.50
2022-10-08T15:26:24.711Z,24.40
2022-10-08T15:28:53.655Z,24.30
2022-10-08T15:31:23.804Z,23.90
2022-10-08T15:33:56.123Z,23.60
2022-10-08T15:36:25.927Z,23.70
2022-10-08T15:43:57.464Z,23.30
2022-10-08T15:48:58.425Z,23.20
2022-10-08T15:53:54.721Z,23.10
2022-10-08T15:56:22.663Z,22.80
2022-10-08T15:58:51.651Z,22.70
2022-10-08T16:01:22.042Z,22.60
2022-10-08T16:03:52.103Z,22.60
2022-10-08T16:06:24.080Z,22.60
2022-10-08T16:08:52.557Z,22.30
2022-10-08T16:11:22.760Z,21.90
2022-10-08T16:18:51.086Z,21.60
2022-10-08T16:21:21.186Z,21.30
2022-10-08T16:23:50.545Z,21.20
2022-10-08T16:26:21.299Z,21.00
2022-10-08T16:28:50.971Z,20.90
2022-10-08T16:31:19.930Z,20.60
2022-10-08T16:33:48.694Z,20.80
2022-10-08T16:36:16.656Z,20.20
2022-10-08T16:38:44.672Z,20.20
2022-10-08T16:41:16.989Z,19.80
2022-10-08T16:43:47.261Z,19.80
2022-10-08T16:46:17.234Z,19.70
2022-10-08T16:48:46.019Z,19.70
2022-10-08T16:51:13.967Z,19.40
2022-10-08T16:53:41.982Z,19.30
2022-10-08T16:56:09.938Z,19.00
2022-10-08T16:58:39.240Z,19.00
2022-10-08T17:01:08.652Z,18.80
2022-10-08T17:03:36.981Z,18.70
2022-10-08T17:06:05.616Z,18.70
2022-10-08T17:08:33.691Z,18.40
2022-10-08T17:11:05.439Z,18.40
2022-10-08T17:13:34.041Z,18.20
2022-10-08T17:16:07.356Z,17.80
2022-10-08T17:18:35.766Z,17.60
2022-10-08T17:23:36.767Z,17.30
2022-10-08T17:26:07.586Z,17.00
2022-10-08T17:28:38.470Z,16.90
2022-10-08T17:33:37.130Z,16.60
2022-10-08T17:41:11.414Z,16.10
2022-10-08T17:43:39.413Z,16.00
2022-10-08T17:48:38.299Z,15.60
2022-10-08T17:51:07.629Z,15.50
2022-10-08T17:53:35.597Z,15.30
2022-10-08T17:58:32.767Z,15.20
2022-10-08T18:03:37.106Z,14.90
2022-10-08T18:06:05.872Z,14.90
2022-10-08T18:08:34.326Z,15.00
2022-10-08T18:11:03.537Z,14.80
2022-10-08T18:16:04.686Z,14.60
2022-10-08T18:21:03.210Z,14.40
2022-10-08T18:26:08.997Z,14.20
2022-10-08T18:28:39.437Z,14.20
2022-10-08T18:33:38.014Z,13.80
2022-10-08T18:38:40.452Z,13.50
2022-10-08T18:41:13.339Z,13.50
2022-10-08T18:43:41.590Z,13.50
2022-10-08T18:46:09.674Z,13.50
2022-10-08T18:48:38.202Z,13.50
2022-10-08T18:56:11.697Z,13.30
2022-10-08T19:01:16.015Z,13.30
2022-10-08T19:03:46.342Z,13.20
2022-10-08T19:06:14.430Z,12.90
2022-10-08T19:08:43.832Z,12.70
2022-10-08T19:11:13.517Z,12.70
2022-10-08T19:13:41.589Z,12.70
2022-10-08T19:21:11.947Z,11.60
2022-10-08T19:26:10.206Z,12.40
2022-10-08T19:33:42.978Z,12.30
2022-10-08T19:36:11.345Z,12.20
2022-10-08T19:38:39.332Z,12.20
2022-10-08T20:01:13.069Z,11.60
2022-10-08T20:03:41.097Z,11.60
2022-10-08T20:06:11.164Z,11.40
2022-10-08T20:23:33.116Z,11.00
2022-10-08T20:26:10.295Z,10.90
2022-10-08T20:28:38.452Z,10.90
2022-10-08T20:41:07.535Z,10.80
2022-10-08T20:43:37.600Z,10.70
2022-10-08T20:46:08.234Z,10.60
2022-10-08T20:48:38.792Z,10.40
2022-10-08T20:51:08.657Z,10.50
2022-10-08T20:53:36.877Z,10.40
2022-10-08T20:56:05.873Z,10.20
2022-10-08T20:58:34.803Z,10.20
2022-10-08T21:01:07.188Z,10.20
2022-10-08T21:03:37.220Z,10.20
2022-10-08T21:06:06.333Z,10.30
2022-10-08T21:08:36.985Z,10.00
2022-10-08T21:11:08.270Z,9.80
2022-10-08T21:13:37.133Z,9.90
2022-10-08T21:16:06.818Z,10.00
2022-10-08T21:18:35.282Z,10.00
2022-10-08T21:21:05.593Z,10.00
2022-10-08T21:23:33.744Z,9.90
2022-10-08T21:26:10.068Z,9.80
2022-10-08T21:28:38.071Z,9.90
2022-10-08T21:31:06.489Z,10.00
2022-10-08T21:33:36.997Z,9.70
2022-10-08T21:36:08.001Z,9.90
2022-10-08T21:38:36.011Z,9.60
2022-10-08T21:41:11.717Z,9.40
2022-10-08T21:43:40.233Z,9.30
2022-10-08T21:46:09.307Z,9.60
2022-10-08T21:48:38.038Z,9.60
2022-10-08T21:53:38.610Z,9.50
2022-10-08T21:56:08.384Z,9.40
2022-10-08T21:58:39.077Z,9.20
2022-10-08T22:01:07.949Z,9.10
2022-10-08T22:03:36.179Z,9.00
2022-10-08T22:06:05.334Z,9.10
2022-10-08T22:08:34.743Z,9.10
2022-10-08T22:11:05.763Z,9.00
2022-10-08T22:13:34.240Z,8.80
2022-10-08T22:16:04.944Z,8.90
2022-10-08T22:18:34.289Z,8.90
2022-10-08T22:21:03.598Z,9.00
2022-10-08T22:23:31.955Z,8.80
2022-10-08T22:26:04.499Z,8.80
2022-10-08T22:28:33.205Z,8.80
2022-10-08T22:31:01.508Z,8.90
2022-10-08T22:33:30.417Z,9.00
2022-10-08T22:36:01.863Z,9.10
2022-10-08T22:41:04.580Z,9.00
2022-10-08T22:43:32.676Z,9.00
2022-10-08T22:46:04.019Z,8.70
2022-10-08T22:48:32.844Z,8.40
2022-10-08T22:51:02.970Z,8.50
2022-10-08T22:53:31.729Z,8.60
2022-10-08T22:56:00.101Z,8.60
2022-10-08T22:58:29.379Z,8.60
2022-10-08T23:01:01.164Z,8.50
2022-10-08T23:03:29.587Z,8.50
2022-10-08T23:06:05.443Z,8.50
2022-10-08T23:08:33.728Z,8.50
2022-10-08T23:11:03.068Z,8.60
2022-10-08T23:13:33.013Z,8.80
2022-10-08T23:16:03.209Z,8.50
2022-10-08T23:18:31.784Z,9.10
2022-10-08T23:21:02.923Z,8.40
2022-10-08T23:23:31.200Z,8.60
2022-10-08T23:26:00.971Z,8.40
2022-10-08T23:28:29.849Z,8.30
2022-10-08T23:31:07.016Z,8.30
2022-10-08T23:33:35.417Z,8.20
2022-10-08T23:36:03.340Z,8.30
2022-10-08T23:38:31.261Z,8.30
2022-10-08T23:41:02.984Z,8.30
2022-10-08T23:43:35.337Z,8.40
2022-10-08T23:46:03.501Z,8.30
2022-10-08T23:48:33.181Z,8.30
2022-10-08T23:51:01.790Z,8.20
2022-10-08T23:53:29.791Z,8.50
2022-10-08T23:55:57.978Z,8.20
2022-10-08T23:58:25.979Z,8.20
